createdAt,value
2019-06-08T00:02:14.594Z,34.93
2019-06-08T00:04:42.940Z,35.54
2019-06-08T00:07:11.034Z,34.09
2019-06-08T00:09:39.433Z,34.24
2019-06-08T00:12:07.455Z,34.25
2019-06-08T00:14:35.514Z,34.41
2019-06-08T00:17:03.526Z,34.46
2019-06-08T00:19:31.573Z,34.92
2019-06-08T00:21:59.608Z,34.04
2019-06-08T00:24:27.635Z,34.00
2019-06-08T00:26:55.657Z,34.96
2019-06-08T00:29:24.614Z,34.44
2019-06-08T00:31:53.074Z,34.55
2019-06-08T00:34:20.996Z,33.71
2019-06-08T00:36:49.095Z,34.25
2019-06-08T00:39:17.066Z,33.43
2019-06-08T00:41:45.210Z,34.67
2019-06-08T00:44:13.161Z,35.57
2019-06-08T00:46:41.752Z,34.40
2019-06-08T00:49:09.810Z,35.44
2019-06-08T00:51:37.699Z,33.56
2019-06-08T00:54:05.596Z,33.91
2019-06-08T00:56:33.486Z,34.52
2019-06-08T00:59:01.486Z,34.25
2019-06-08T01:01:30.905Z,35.22
2019-06-08T01:03:59.088Z,35.38
2019-06-08T01:06:27.556Z,34.64
2019-06-08T01:08:56.705Z,34.78
2019-06-08T01:11:24.814Z,35.31
2019-06-08T01:13:52.836Z,34.53
2019-06-08T01:18:54.270Z,34.93
2019-06-08T01:21:23.291Z,34.52
2019-06-08T01:23:52.330Z,34.38
2019-06-08T01:26:20.277Z,35.07
2019-06-08T01:28:48.402Z,34.76
2019-06-08T01:33:49.478Z,34.87
2019-06-08T01:36:17.465Z,35.10
2019-06-08T01:38:45.433Z,34.59
2019-06-08T01:41:13.402Z,35.13
2019-06-08T01:43:41.382Z,34.78
2019-06-08T01:46:09.260Z,34.36
2019-06-08T01:48:37.285Z,34.42
2019-06-08T01:51:05.365Z,34.88
2019-06-08T01:53:33.325Z,34.54
2019-06-08T01:56:01.400Z,35.20
2019-06-08T01:58:29.532Z,34.38
2019-06-08T02:00:57.580Z,34.69
2019-06-08T02:03:26.318Z,35.19
2019-06-08T02:05:55.406Z,35.69
2019-06-08T02:08:24.388Z,36.39
2019-06-08T02:10:53.080Z,35.39
2019-06-08T02:13:21.134Z,34.47
2019-06-08T02:16:08.187Z,35.04
2019-06-08T02:18:46.832Z,35.12
2019-06-08T02:21:05.882Z,34.82
2019-06-08T02:23:35.098Z,34.29
2019-06-08T02:26:03.648Z,33.98
2019-06-08T02:28:31.611Z,33.94
2019-06-08T02:30:59.658Z,34.31
2019-06-08T02:36:15.664Z,33.90
2019-06-08T02:38:43.694Z,34.25
2019-06-08T02:41:11.937Z,34.21
2019-06-08T02:43:40.384Z,34.65
2019-06-08T02:46:09.827Z,34.45
2019-06-08T02:49:04.077Z,34.71
2019-06-08T02:51:26.431Z,34.37
2019-06-08T02:53:54.474Z,34.89
2019-06-08T02:56:22.450Z,34.41
2019-06-08T02:58:51.078Z,34.52
2019-06-08T03:01:19.239Z,34.89
2019-06-08T03:03:47.292Z,34.18
2019-06-08T03:06:15.306Z,34.24
2019-06-08T03:08:44.068Z,34.15
2019-06-08T03:11:12.991Z,33.41
2019-06-08T03:13:42.573Z,33.61
2019-06-08T03:16:10.830Z,33.71
2019-06-08T03:18:40.247Z,34.06
2019-06-08T03:21:08.504Z,33.35
2019-06-08T03:26:23.596Z,32.84
2019-06-08T03:28:51.516Z,33.17
2019-06-08T03:31:19.538Z,33.22
2019-06-08T03:33:54.975Z,34.44
2019-06-08T03:36:17.161Z,33.93
2019-06-08T03:38:45.356Z,34.50
2019-06-08T03:41:13.522Z,33.79
2019-06-08T03:43:42.418Z,33.34
2019-06-08T03:46:11.104Z,34.31
2019-06-08T03:48:40.053Z,33.48
2019-06-08T03:51:08.921Z,34.09
2019-06-08T03:53:37.944Z,33.29
2019-06-08T03:56:06.372Z,35.19
2019-06-08T03:58:35.002Z,33.77
2019-06-08T04:01:04.121Z,32.92
2019-06-08T04:03:32.126Z,33.21
2019-06-08T04:06:00.091Z,32.85
2019-06-08T04:08:27.987Z,33.80
2019-06-08T04:10:55.905Z,32.93
2019-06-08T04:13:23.811Z,33.79
2019-06-08T04:15:51.624Z,34.16
2019-06-08T04:18:19.792Z,33.93
2019-06-08T04:20:48.890Z,33.42
2019-06-08T04:23:17.342Z,32.91
2019-06-08T04:25:47.424Z,33.41
2019-06-08T04:28:14.969Z,32.91
2019-06-08T04:30:45.140Z,32.82
2019-06-08T04:33:12.844Z,34.18
2019-06-08T04:38:14.524Z,33.23
2019-06-08T04:40:43.521Z,32.27
2019-06-08T04:43:12.167Z,32.77
2019-06-08T04:45:41.138Z,32.41
2019-06-08T04:48:10.043Z,33.39
2019-06-08T04:50:38.656Z,32.83
2019-06-08T04:53:07.835Z,32.35
2019-06-08T04:55:35.701Z,33.17
2019-06-08T04:58:03.669Z,32.94
2019-06-08T05:00:31.659Z,32.71
2019-06-08T05:02:59.903Z,32.33
2019-06-08T05:05:27.993Z,33.17
2019-06-08T05:07:55.853Z,33.09
2019-06-08T05:10:23.916Z,33.21
2019-06-08T05:12:51.902Z,33.56
2019-06-08T05:15:19.856Z,32.26
2019-06-08T05:17:49.533Z,32.62
2019-06-08T05:20:17.527Z,32.64
2019-06-08T05:22:45.641Z,32.49
2019-06-08T05:25:13.610Z,33.02
2019-06-08T05:27:41.483Z,32.44
2019-06-08T05:30:09.607Z,32.96
2019-06-08T05:32:37.623Z,32.68
2019-06-08T05:35:24.498Z,35.30
2019-06-08T05:40:39.538Z,31.91
2019-06-08T05:43:07.452Z,33.47
2019-06-08T05:45:35.392Z,32.74
2019-06-08T05:48:03.441Z,34.25
2019-06-08T05:50:31.456Z,33.74
2019-06-08T05:52:59.615Z,32.44
2019-06-08T05:55:27.612Z,32.96
2019-06-08T05:57:55.619Z,34.70
2019-06-08T06:00:23.690Z,32.84
2019-06-08T06:02:51.663Z,32.99
2019-06-08T06:05:19.638Z,33.10
2019-06-08T06:07:48.907Z,32.84
2019-06-08T06:10:17.270Z,32.83
2019-06-08T06:12:46.858Z,34.08
2019-06-08T06:15:15.164Z,33.02
2019-06-08T06:17:43.988Z,32.71
2019-06-08T06:20:12.701Z,32.88
2019-06-08T06:22:42.025Z,32.49
2019-06-08T06:25:10.730Z,33.21
2019-06-08T06:27:38.754Z,33.08
2019-06-08T06:32:39.780Z,32.91
2019-06-08T06:35:07.613Z,34.30
2019-06-08T06:37:35.617Z,33.33
2019-06-08T06:40:03.548Z,34.21
2019-06-08T06:42:52.120Z,33.66
2019-06-08T06:45:20.309Z,33.82
2019-06-08T06:47:48.556Z,34.11
2019-06-08T06:50:16.810Z,32.54
2019-06-08T06:53:03.806Z,31.95
2019-06-08T06:55:31.877Z,33.81
2019-06-08T06:58:00.119Z,33.04
2019-06-08T07:00:47.539Z,33.70
2019-06-08T07:03:15.478Z,33.52
2019-06-08T07:05:43.717Z,33.10
2019-06-08T07:08:12.890Z,34.21
2019-06-08T07:10:40.818Z,33.20
2019-06-08T07:13:08.828Z,34.11
2019-06-08T07:15:41.690Z,33.67
2019-06-08T07:18:25.276Z,32.72
2019-06-08T07:20:54.325Z,32.74
2019-06-08T07:23:22.704Z,33.72
2019-06-08T07:25:50.528Z,32.25
2019-06-08T07:28:18.713Z,32.65
2019-06-08T07:30:47.709Z,32.34
2019-06-08T07:33:16.489Z,33.10
2019-06-08T07:35:44.476Z,32.02
2019-06-08T07:38:12.477Z,32.29
2019-06-08T07:40:40.471Z,32.19
2019-06-08T07:43:08.374Z,32.54
2019-06-08T07:45:36.369Z,31.76
2019-06-08T07:48:04.404Z,31.32
2019-06-08T07:50:32.190Z,32.39
2019-06-08T07:53:00.074Z,31.76
2019-06-08T07:55:27.972Z,32.21
2019-06-08T07:57:56.345Z,31.09
2019-06-08T08:00:24.252Z,31.32
2019-06-08T08:02:52.272Z,32.47
2019-06-08T08:05:20.266Z,32.11
2019-06-08T08:07:48.401Z,30.73
2019-06-08T08:10:16.436Z,31.48
2019-06-08T08:12:44.548Z,31.62
2019-06-08T08:15:12.543Z,32.12
2019-06-08T08:17:40.455Z,32.87
2019-06-08T08:20:08.385Z,32.70
2019-06-08T08:22:38.240Z,32.55
2019-06-08T08:25:24.970Z,32.57
2019-06-08T08:27:53.485Z,32.67
2019-06-08T08:33:09.364Z,31.25
2019-06-08T08:35:38.139Z,31.99
2019-06-08T08:38:07.594Z,32.52
2019-06-08T08:40:38.612Z,32.92
2019-06-08T08:43:06.190Z,30.62
2019-06-08T08:45:34.208Z,32.92
2019-06-08T08:48:21.116Z,33.08
2019-06-08T08:50:31.952Z,31.73
2019-06-08T08:55:48.032Z,33.02
2019-06-08T08:58:18.597Z,31.96
2019-06-08T09:00:48.510Z,33.03
2019-06-08T09:03:26.019Z,32.84
2019-06-08T09:05:48.153Z,32.77
2019-06-08T09:08:15.369Z,34.01
2019-06-08T09:10:43.361Z,32.63
2019-06-08T09:13:12.161Z,32.11
2019-06-08T09:15:41.296Z,33.53
2019-06-08T09:18:09.328Z,33.57
2019-06-08T09:20:38.052Z,33.96
2019-06-08T09:25:59.082Z,33.48
2019-06-08T09:28:23.575Z,34.46
2019-06-08T09:30:52.078Z,33.97
2019-06-08T09:33:21.045Z,34.52
2019-06-08T09:36:08.433Z,33.13
2019-06-08T09:38:38.545Z,32.68
2019-06-08T09:41:08.808Z,34.92
2019-06-08T09:43:38.587Z,34.33
2019-06-08T09:46:08.848Z,33.61
2019-06-08T09:48:38.038Z,34.26
2019-06-08T09:51:08.569Z,33.32
2019-06-08T09:53:40.471Z,34.25
2019-06-08T09:56:06.650Z,34.83
2019-06-08T09:58:34.151Z,34.31
2019-06-08T10:01:03.806Z,34.24
2019-06-08T10:03:31.766Z,34.08
2019-06-08T10:06:05.513Z,34.73
2019-06-08T10:08:29.300Z,35.34
2019-06-08T10:10:59.485Z,35.43
2019-06-08T10:13:28.012Z,33.17
2019-06-08T10:16:00.025Z,34.86
2019-06-08T10:18:28.350Z,33.02
2019-06-08T10:20:58.043Z,35.23
2019-06-08T10:23:31.876Z,35.51
2019-06-08T10:25:55.026Z,35.01
2019-06-08T10:28:22.911Z,35.57
2019-06-08T10:30:50.741Z,33.84
2019-06-08T10:33:18.680Z,32.32
2019-06-08T10:35:47.987Z,35.38
2019-06-08T10:38:18.112Z,35.76
2019-06-08T10:41:10.430Z,35.62
2019-06-08T10:43:34.793Z,35.07
2019-06-08T10:46:09.431Z,35.81
2019-06-08T10:48:32.303Z,33.66
2019-06-08T10:51:03.761Z,35.91
2019-06-08T10:53:45.041Z,35.47
2019-06-08T10:56:01.282Z,31.37
2019-06-08T10:58:29.438Z,34.28
2019-06-08T11:00:59.692Z,35.36
2019-06-08T11:03:30.377Z,35.16
2019-06-08T11:06:00.464Z,35.57
2019-06-08T11:08:27.571Z,35.59
2019-06-08T11:10:57.868Z,35.18
2019-06-08T11:13:28.140Z,35.84
2019-06-08T11:15:58.049Z,35.78
2019-06-08T11:18:25.269Z,35.80
2019-06-08T11:20:53.166Z,35.70
2019-06-08T11:23:21.035Z,35.84
2019-06-08T11:25:48.917Z,36.19
2019-06-08T11:28:18.553Z,34.42
2019-06-08T11:30:48.076Z,36.19
2019-06-08T11:33:16.251Z,33.57
2019-06-08T11:35:44.286Z,36.06
2019-06-08T11:38:12.750Z,36.35
2019-06-08T11:40:41.799Z,33.89
2019-06-08T11:43:10.685Z,35.86
2019-06-08T11:45:39.444Z,35.85
2019-06-08T11:48:08.662Z,36.06
2019-06-08T11:50:41.449Z,36.09
2019-06-08T11:53:10.516Z,34.51
2019-06-08T11:55:38.493Z,36.08
2019-06-08T11:58:09.814Z,36.03
2019-06-08T12:01:00.732Z,33.02
2019-06-08T12:03:27.739Z,35.09
2019-06-08T12:05:58.151Z,34.30
2019-06-08T12:08:25.112Z,35.49
2019-06-08T12:10:53.229Z,35.98
2019-06-08T12:13:21.080Z,36.14
2019-06-08T12:15:49.006Z,35.93
2019-06-08T12:18:18.184Z,36.26
2019-06-08T12:20:48.689Z,36.29
2019-06-08T12:23:16.417Z,35.74
2019-06-08T12:25:44.440Z,36.32
2019-06-08T12:28:12.604Z,36.32
2019-06-08T12:30:41.806Z,36.36
2019-06-08T12:33:30.746Z,36.21
2019-06-08T12:35:59.033Z,36.13
2019-06-08T12:38:29.968Z,36.48
2019-06-08T12:40:58.720Z,36.29
2019-06-08T12:46:00.390Z,36.30
2019-06-08T12:48:28.793Z,36.44
2019-06-08T12:50:57.932Z,35.94
2019-06-08T12:53:28.145Z,36.42
2019-06-08T12:55:57.907Z,36.49
2019-06-08T12:58:27.467Z,36.38
2019-06-08T13:00:57.839Z,36.07
2019-06-08T13:03:24.846Z,35.76
2019-06-08T13:05:53.119Z,36.41
2019-06-08T13:08:21.846Z,27.45
2019-06-08T13:10:50.858Z,30.32
2019-06-08T13:13:19.990Z,29.38
2019-06-08T13:15:48.626Z,27.97
2019-06-08T13:18:17.647Z,28.64
2019-06-08T13:21:18.709Z,28.28
2019-06-08T13:23:35.310Z,25.61
2019-06-08T13:26:03.334Z,27.39
2019-06-08T13:28:31.220Z,27.18
2019-06-08T13:30:59.622Z,26.30
2019-06-08T13:33:28.128Z,25.96
2019-06-08T13:35:58.011Z,29.82
2019-06-08T13:38:27.809Z,31.22
2019-06-08T13:40:58.918Z,28.84
2019-06-08T13:46:00.485Z,27.20
2019-06-08T13:48:28.504Z,28.40
2019-06-08T13:50:59.020Z,29.82
2019-06-08T13:53:29.376Z,28.27
2019-06-08T13:55:56.732Z,29.20
2019-06-08T13:58:30.911Z,31.68
2019-06-08T14:00:56.770Z,30.20
2019-06-08T14:03:24.455Z,30.99
2019-06-08T14:05:52.547Z,29.42
2019-06-08T14:08:22.455Z,26.40
2019-06-08T14:10:50.174Z,25.66
2019-06-08T14:13:21.547Z,26.20
2019-06-08T14:15:48.781Z,26.77
2019-06-08T14:18:22.561Z,26.50
2019-06-08T14:20:48.364Z,26.26
2019-06-08T14:23:19.599Z,26.01
2019-06-08T14:25:53.689Z,26.04
2019-06-08T14:28:18.151Z,25.67
2019-06-08T14:30:47.861Z,24.91
2019-06-08T14:33:23.036Z,24.65
2019-06-08T14:35:45.692Z,25.10
2019-06-08T14:38:13.722Z,25.36
2019-06-08T14:40:41.556Z,24.56
2019-06-08T14:43:10.757Z,24.83
2019-06-08T14:45:39.054Z,25.34
2019-06-08T14:48:07.008Z,25.35
2019-06-08T14:50:34.906Z,25.39
2019-06-08T14:53:02.940Z,25.20
2019-06-08T14:55:33.990Z,24.52
2019-06-08T14:58:00.913Z,25.10
2019-06-08T15:00:29.722Z,27.28
2019-06-08T15:02:59.046Z,27.39
2019-06-08T15:05:30.723Z,25.38
2019-06-08T15:07:58.159Z,24.15
2019-06-08T15:10:29.339Z,23.58
2019-06-08T15:12:57.781Z,23.55
2019-06-08T15:15:28.869Z,23.88
2019-06-08T15:17:58.255Z,23.97
2019-06-08T15:20:26.209Z,24.51
2019-06-08T15:22:54.191Z,24.20
2019-06-08T15:25:22.538Z,23.92
2019-06-08T15:27:50.543Z,24.20
2019-06-08T15:30:18.749Z,23.94
2019-06-08T15:32:48.021Z,23.31
2019-06-08T15:35:18.108Z,23.65
2019-06-08T15:37:47.708Z,24.04
2019-06-08T15:40:17.564Z,23.92
2019-06-08T15:42:47.829Z,24.36
2019-06-08T15:45:18.271Z,24.70
2019-06-08T15:47:48.538Z,25.41
2019-06-08T15:50:17.946Z,26.56
2019-06-08T15:52:47.997Z,26.18
2019-06-08T15:55:15.386Z,26.62
2019-06-08T15:57:43.264Z,27.17
2019-06-08T16:00:11.246Z,27.41
2019-06-08T16:02:39.219Z,27.67
2019-06-08T16:05:07.782Z,27.80
2019-06-08T16:07:35.906Z,27.83
2019-06-08T16:10:04.165Z,27.91
2019-06-08T16:12:33.181Z,28.01
2019-06-08T16:15:01.455Z,28.03
2019-06-08T16:17:29.303Z,28.28
2019-06-08T16:19:57.167Z,28.29
2019-06-08T16:22:25.708Z,28.39
2019-06-08T16:24:53.606Z,28.42
2019-06-08T16:27:21.511Z,28.47
2019-06-08T16:29:49.667Z,28.65
2019-06-08T16:32:17.455Z,28.71
2019-06-08T16:34:45.677Z,28.75
2019-06-08T16:37:13.587Z,28.80
2019-06-08T16:39:41.455Z,28.87
2019-06-08T16:42:09.492Z,28.96
2019-06-08T16:44:38.627Z,29.07
2019-06-08T16:47:06.570Z,29.13
2019-06-08T16:49:35.432Z,29.17
2019-06-08T16:52:03.449Z,29.17
2019-06-08T16:54:32.726Z,29.29
2019-06-08T16:57:10.054Z,29.24
2019-06-08T16:59:30.514Z,29.37
2019-06-08T17:01:58.876Z,29.47
2019-06-08T17:04:26.776Z,29.48
2019-06-08T17:06:54.908Z,29.54
2019-06-08T17:09:22.694Z,29.58
2019-06-08T17:11:50.483Z,29.58
2019-06-08T17:14:18.314Z,29.62
2019-06-08T17:16:46.283Z,29.66
2019-06-08T17:19:14.298Z,29.71
2019-06-08T17:21:42.292Z,29.77
2019-06-08T17:24:10.269Z,29.74
2019-06-08T17:26:38.739Z,29.81
2019-06-08T17:29:06.976Z,29.88
2019-06-08T17:31:35.210Z,29.95
2019-06-08T17:34:03.308Z,29.88
2019-06-08T17:36:31.945Z,29.89
2019-06-08T17:39:00.124Z,29.98
2019-06-08T17:41:27.924Z,30.06
2019-06-08T17:43:55.825Z,28.38
2019-06-08T17:46:23.624Z,29.66
2019-06-08T17:48:51.411Z,30.16
2019-06-08T17:51:19.287Z,30.19
2019-06-08T17:53:47.410Z,30.15
2019-06-08T17:56:15.496Z,30.00
2019-06-08T17:58:43.677Z,28.98
2019-06-08T18:01:11.963Z,29.00
2019-06-08T18:03:41.090Z,29.22
2019-06-08T18:06:09.637Z,30.17
2019-06-08T18:08:40.570Z,30.30
2019-06-08T18:11:08.064Z,30.37
2019-06-08T18:13:39.028Z,30.32
2019-06-08T18:16:08.111Z,30.45
2019-06-08T18:18:37.690Z,30.45
2019-06-08T18:21:04.963Z,30.46
2019-06-08T18:23:34.223Z,30.42
2019-06-08T18:26:02.223Z,30.45
2019-06-08T18:28:30.012Z,30.50
2019-06-08T18:30:58.231Z,30.50
2019-06-08T18:33:27.046Z,30.55
2019-06-08T18:35:57.517Z,30.55
2019-06-08T18:38:27.275Z,30.55
2019-06-08T18:40:54.595Z,30.60
2019-06-08T18:43:23.352Z,30.61
2019-06-08T18:45:51.100Z,30.70
2019-06-08T18:48:18.948Z,30.68
2019-06-08T18:50:48.497Z,30.53
2019-06-08T18:53:18.922Z,30.67
2019-06-08T18:55:49.948Z,30.66
2019-06-08T18:58:24.406Z,30.76
2019-06-08T19:00:51.151Z,30.76
2019-06-08T19:03:17.173Z,30.83
2019-06-08T19:05:47.632Z,30.75
2019-06-08T19:08:15.098Z,30.80
2019-06-08T19:10:45.505Z,30.82
2019-06-08T19:13:17.961Z,30.81
2019-06-08T19:15:51.850Z,30.66
2019-06-08T19:18:17.744Z,30.73
2019-06-08T19:20:48.965Z,30.69
2019-06-08T19:23:21.373Z,30.75
2019-06-08T19:25:49.752Z,30.31
2019-06-08T19:28:32.695Z,30.70
2019-06-08T19:30:51.344Z,30.55
2019-06-08T19:33:18.056Z,30.07
2019-06-08T19:35:51.643Z,30.55
2019-06-08T19:38:17.985Z,30.59
2019-06-08T19:40:46.110Z,29.97
2019-06-08T19:43:14.196Z,29.99
2019-06-08T19:45:43.968Z,30.69
2019-06-08T19:48:12.255Z,30.00
2019-06-08T19:50:41.344Z,30.20
2019-06-08T19:53:10.149Z,30.27
2019-06-08T19:55:39.290Z,30.27
2019-06-08T19:58:08.724Z,30.24
2019-06-08T20:00:39.261Z,30.49
2019-06-08T20:03:07.696Z,30.21
2019-06-08T20:05:37.800Z,30.46
2019-06-08T20:08:07.870Z,30.47
2019-06-08T20:10:35.173Z,30.28
2019-06-08T20:13:03.179Z,30.67
2019-06-08T20:15:31.337Z,30.63
2019-06-08T20:17:59.414Z,30.35
2019-06-08T20:20:28.049Z,30.39
2019-06-08T20:22:58.504Z,30.64
2019-06-08T20:25:27.879Z,30.43
2019-06-08T20:27:58.462Z,30.68
2019-06-08T20:30:28.015Z,30.75
2019-06-08T20:32:57.418Z,30.63
2019-06-08T20:35:25.119Z,30.83
2019-06-08T20:37:53.891Z,30.78
2019-06-08T20:40:22.000Z,30.80
2019-06-08T20:42:53.316Z,30.84
2019-06-08T20:45:19.574Z,30.93
2019-06-08T20:47:50.551Z,30.93
2019-06-08T20:50:18.374Z,30.93
2019-06-08T20:52:47.299Z,30.97
2019-06-08T20:55:17.490Z,30.87
2019-06-08T20:57:47.736Z,31.14
2019-06-08T21:00:15.854Z,31.09
2019-06-08T21:02:43.938Z,31.18
2019-06-08T21:05:12.296Z,31.14
2019-06-08T21:07:40.180Z,31.25
2019-06-08T21:10:08.642Z,31.15
2019-06-08T21:12:37.918Z,31.07
2019-06-08T21:15:07.068Z,31.35
2019-06-08T21:17:35.260Z,31.71
2019-06-08T21:20:03.277Z,31.37
2019-06-08T21:22:31.300Z,31.35
2019-06-08T21:25:00.141Z,31.93
2019-06-08T21:27:28.364Z,32.08
2019-06-08T21:30:02.159Z,32.12
2019-06-08T21:32:27.813Z,32.28
2019-06-08T21:34:57.601Z,32.40
2019-06-08T21:37:27.865Z,32.53
2019-06-08T21:40:00.835Z,32.63
2019-06-08T21:42:24.598Z,32.54
2019-06-08T21:44:53.700Z,32.41
2019-06-08T21:47:22.270Z,32.58
2019-06-08T21:49:51.365Z,32.72
2019-06-08T21:52:19.634Z,32.91
2019-06-08T21:54:48.889Z,33.00
2019-06-08T21:57:18.513Z,32.91
2019-06-08T21:59:48.550Z,32.98
2019-06-08T22:02:16.268Z,33.23
2019-06-08T22:04:44.178Z,33.43
2019-06-08T22:07:12.233Z,33.46
2019-06-08T22:09:40.431Z,33.15
2019-06-08T22:12:08.495Z,33.64
2019-06-08T22:14:37.863Z,33.50
2019-06-08T22:17:07.858Z,33.41
2019-06-08T22:19:37.895Z,33.28
2019-06-08T22:22:08.169Z,32.54
2019-06-08T22:24:35.489Z,30.48
2019-06-08T22:27:03.710Z,30.72
2019-06-08T22:29:31.937Z,30.79
2019-06-08T22:32:00.240Z,30.77
2019-06-08T22:34:28.243Z,30.98
2019-06-08T22:36:58.623Z,31.53
2019-06-08T22:39:27.983Z,31.63
2019-06-08T22:41:58.075Z,32.11
2019-06-08T22:44:28.249Z,32.40
2019-06-08T22:46:58.434Z,32.95
2019-06-08T22:49:27.840Z,33.26
2019-06-08T22:51:57.731Z,33.60
2019-06-08T22:54:24.680Z,33.15
2019-06-08T22:56:53.825Z,32.58
2019-06-08T22:59:22.394Z,33.17
2019-06-08T23:01:50.283Z,33.53
2019-06-08T23:04:18.396Z,33.85
2019-06-08T23:06:47.634Z,34.32
2019-06-08T23:09:17.938Z,34.55
2019-06-08T23:11:47.113Z,34.75
2019-06-08T23:14:15.217Z,35.16
2019-06-08T23:16:43.292Z,34.99
2019-06-08T23:19:11.223Z,34.42
2019-06-08T23:21:39.242Z,34.25
2019-06-08T23:24:08.504Z,35.05
2019-06-08T23:26:37.311Z,35.62
2019-06-08T23:29:07.813Z,36.01
2019-06-08T23:31:35.358Z,35.95
2019-06-08T23:34:06.572Z,36.17
2019-06-08T23:36:48.360Z,36.19
2019-06-08T23:39:03.792Z,35.93
2019-06-08T23:41:32.971Z,35.84
2019-06-08T23:44:01.493Z,35.57
2019-06-08T23:46:29.579Z,35.58
2019-06-08T23:49:00.623Z,36.33
2019-06-08T23:51:27.663Z,36.67
2019-06-08T23:53:58.266Z,36.52
2019-06-08T23:56:27.775Z,36.43
2019-06-08T23:58:55.626Z,36.46
